Terminal Aerodrome Forecast
Issued by NWS

Home | Current Version | Previous Version | Text Only | Print | Product List | Glossary On
Versions: 1 2 3 4 5 6 7 8 9 10 11 12 13
000
FTUS46 KMTR 301737
TAFMRY
TAF
KMRY 301737Z 3018/3118 31005KT P6SM SKC
     FM302200 29010G22KT P6SM SKC
     FM310200 25008KT P6SM SKC
     FM310500 VRB03KT P6SM OVC015
     FM311100 22004KT P6SM OVC007
     FM311700 27006KT P6SM SKC=

USA.gov is the U.S. government's official web portal to all federal, state and local government web resources and services.